Time;durP1;ratioP1;P1;durP2;ratioP2;P2;SDS_P1;SDS_P2;PMS_P1;PMS_P2;Temp;Humidity;BMP_temperature;BMP_pressure;BME280_temperature;BME280_humidity;BME280_pressure;Samples;Min_cycle;Max_cycle;Signal;HPM_P1;HPM_P2
2022/07/19 00:02:02;;;;;;;10.85;4.18;;;20.00;99.90;;;;;;5073481;28;20033;-85
2022/07/19 00:04:31;;;;;;;8.52;3.28;;;19.90;99.90;;;;;;5073243;28;20072;-85
2022/07/19 00:06:57;;;;;;;9.60;3.53;;;19.90;99.90;;;;;;5073107;28;20048;-85
2022/07/19 00:09:23;;;;;;;11.07;4.40;;;19.70;99.90;;;;;;5056526;28;20074;-85
2022/07/19 00:11:49;;;;;;;11.27;3.60;;;19.70;99.90;;;;;;5073168;28;20397;-85
2022/07/19 00:14:15;;;;;;;8.23;3.78;;;19.60;99.90;;;;;;5073186;28;20501;-85
2022/07/19 00:16:41;;;;;;;9.02;3.70;;;19.60;99.90;;;;;;5073077;28;20079;-85
2022/07/19 00:19:06;;;;;;;10.77;4.25;;;19.50;99.90;;;;;;5072639;28;20118;-85
2022/07/19 00:21:32;;;;;;;8.85;4.05;;;19.50;99.90;;;;;;5090118;28;20162;-85
2022/07/19 00:24:00;;;;;;;8.38;3.95;;;19.50;99.90;;;;;;5074107;28;20401;-85
2022/07/19 00:26:28;;;;;;;8.40;3.63;;;19.40;99.90;;;;;;5072977;28;20037;-85
2022/07/19 00:28:54;;;;;;;7.78;4.18;;;19.40;99.90;;;;;;5072682;28;20055;-85
2022/07/19 00:31:24;;;;;;;8.38;3.47;;;19.30;99.90;;;;;;5055915;28;20067;-85
2022/07/19 00:33:50;;;;;;;8.70;4.50;;;19.20;99.90;;;;;;5074029;28;20048;-85
2022/07/19 00:36:17;;;;;;;9.88;4.63;;;19.20;99.90;;;;;;5074246;28;20044;-85
2022/07/19 00:38:43;;;;;;;9.95;4.35;;;19.20;99.90;;;;;;5072714;28;20076;-85
2022/07/19 00:41:09;;;;;;;9.25;4.00;;;19.20;99.90;;;;;;5089371;28;20075;-85
2022/07/19 00:43:35;;;;;;;8.88;4.30;;;19.20;99.90;;;;;;5072467;28;20066;-85
2022/07/19 00:46:01;;;;;;;8.27;4.15;;;19.20;99.90;;;;;;5072494;28;20094;-85
2022/07/19 00:48:26;;;;;;;9.48;4.07;;;19.20;99.90;;;;;;5072823;28;20032;-85
2022/07/19 00:50:52;;;;;;;8.63;4.38;;;19.20;99.90;;;;;;5072309;28;20045;-85
2022/07/19 00:53:19;;;;;;;9.57;4.28;;;19.20;99.90;;;;;;5072527;28;20135;-85
2022/07/19 00:55:45;;;;;;;10.23;4.55;;;19.20;99.90;;;;;;5055769;28;20472;-85
2022/07/19 00:58:13;;;;;;;9.02;4.38;;;19.20;99.90;;;;;;5073331;28;20052;-85
2022/07/19 01:00:40;;;;;;;9.77;4.50;;;19.10;99.90;;;;;;5055299;28;20041;-85
2022/07/19 01:03:10;;;;;;;10.05;4.32;;;19.10;99.90;;;;;;5072397;28;20397;-85
2022/07/19 01:05:36;;;;;;;8.73;4.28;;;19.10;99.90;;;;;;5055395;28;20490;-85
2022/07/19 01:08:02;;;;;;;10.73;4.57;;;19.10;99.90;;;;;;5072356;28;20433;-85
2022/07/19 01:10:28;;;;;;;9.05;3.95;;;19.10;99.90;;;;;;5071589;28;20048;-85
2022/07/19 01:12:54;;;;;;;8.95;4.55;;;19.00;99.90;;;;;;5055087;28;20044;-84
2022/07/19 01:15:25;;;;;;;8.30;4.53;;;19.00;99.90;;;;;;5071807;28;20044;-85
2022/07/19 01:17:51;;;;;;;9.05;4.30;;;19.00;99.90;;;;;;5071936;28;20048;-85
2022/07/19 01:20:19;;;;;;;8.93;4.63;;;19.00;99.90;;;;;;5071525;28;20037;-85
2022/07/19 01:22:46;;;;;;;8.77;4.00;;;18.90;99.90;;;;;;5071923;28;20033;-85
2022/07/19 01:25:11;;;;;;;7.57;3.80;;;18.90;99.90;;;;;;5055074;28;20036;-85
2022/07/19 01:27:48;;;;;;;9.30;3.83;;;18.80;99.90;;;;;;5071881;28;20497;-85
2022/07/19 01:30:22;;;;;;;8.52;3.85;;;18.70;99.90;;;;;;5071712;28;20049;-85
2022/07/19 01:32:49;;;;;;;8.60;3.95;;;18.70;99.90;;;;;;5071690;28;20561;-85
2022/07/19 01:35:15;;;;;;;8.43;4.13;;;18.60;99.90;;;;;;5054862;28;20065;-85
2022/07/19 01:37:41;;;;;;;7.88;3.72;;;18.60;99.90;;;;;;5071368;28;20032;-85
2022/07/19 01:40:09;;;;;;;10.30;3.92;;;18.50;99.90;;;;;;5071528;28;20040;-85
2022/07/19 01:42:35;;;;;;;8.43;4.30;;;18.50;99.90;;;;;;5055241;28;20137;-85
2022/07/19 01:45:01;;;;;;;10.15;4.10;;;18.50;99.90;;;;;;5071570;28;20485;-85
2022/07/19 01:47:26;;;;;;;9.30;4.18;;;18.50;99.90;;;;;;5054688;28;20440;-85
2022/07/19 01:49:53;;;;;;;8.35;4.15;;;18.50;99.90;;;;;;5071009;28;20048;-85
2022/07/19 01:52:18;;;;;;;9.05;4.13;;;18.40;99.90;;;;;;5053785;28;20140;-85
2022/07/19 01:54:44;;;;;;;9.75;4.15;;;18.40;99.90;;;;;;5054970;28;20144;-85
2022/07/19 01:57:09;;;;;;;9.00;4.35;;;18.30;99.90;;;;;;5071697;28;20043;-85
2022/07/19 01:59:36;;;;;;;8.32;4.47;;;18.40;99.90;;;;;;5070868;28;20598;-85
2022/07/19 02:02:02;;;;;;;11.27;4.50;;;18.30;99.90;;;;;;5071016;28;20040;-85
2022/07/19 02:04:28;;;;;;;14.60;4.95;;;18.30;99.90;;;;;;5071300;28;20037;-85
2022/07/19 02:06:53;;;;;;;8.93;4.43;;;18.30;99.90;;;;;;5071090;28;20478;-85
2022/07/19 02:09:19;;;;;;;7.85;4.22;;;18.30;99.90;;;;;;5070972;28;20037;-85
2022/07/19 02:11:45;;;;;;;8.38;4.22;;;18.20;99.90;;;;;;5071091;28;20048;-85
2022/07/19 02:14:10;;;;;;;9.15;4.22;;;18.20;99.90;;;;;;5070809;28;20033;-85
2022/07/19 02:16:37;;;;;;;9.82;4.68;;;18.20;99.90;;;;;;5087756;28;20127;-85
2022/07/19 02:19:04;;;;;;;11.13;5.10;;;18.20;99.90;;;;;;5070498;28;20032;-85
2022/07/19 02:21:31;;;;;;;9.95;5.30;;;18.10;99.90;;;;;;5070624;28;20068;-85
2022/07/19 02:23:56;;;;;;;10.45;5.43;;;18.10;99.90;;;;;;5054161;28;20029;-85
2022/07/19 02:26:22;;;;;;;9.48;4.82;;;18.10;99.90;;;;;;5070641;28;20033;-85
2022/07/19 02:28:48;;;;;;;12.43;5.38;;;18.00;99.90;;;;;;5070600;28;20394;-85
2022/07/19 02:31:13;;;;;;;8.85;4.55;;;18.00;99.90;;;;;;5069946;28;20037;-85
2022/07/19 02:33:39;;;;;;;13.27;5.63;;;18.00;99.90;;;;;;5070556;28;20421;-84
2022/07/19 02:36:05;;;;;;;12.52;5.15;;;17.90;99.90;;;;;;5070567;28;20036;-84
2022/07/19 02:38:31;;;;;;;9.60;5.10;;;17.90;99.90;;;;;;5070241;28;20122;-84
2022/07/19 02:40:56;;;;;;;11.77;5.05;;;17.90;99.90;;;;;;5070400;28;20141;-84
2022/07/19 02:43:22;;;;;;;12.93;5.18;;;17.80;99.90;;;;;;5070243;28;20521;-85
2022/07/19 02:45:47;;;;;;;10.07;5.30;;;17.80;99.90;;;;;;5069966;28;20037;-84
2022/07/19 02:48:13;;;;;;;10.80;5.10;;;17.80;99.90;;;;;;5053687;28;20047;-85
2022/07/19 02:50:39;;;;;;;10.88;5.05;;;17.80;99.90;;;;;;5086826;28;20119;-85
2022/07/19 02:53:05;;;;;;;11.32;5.35;;;17.80;99.90;;;;;;5070206;28;20044;-85
2022/07/19 02:55:31;;;;;;;9.65;4.88;;;17.70;99.90;;;;;;5053622;28;20036;-85
2022/07/19 02:57:56;;;;;;;9.95;4.90;;;17.70;99.90;;;;;;5070422;28;20448;-85
2022/07/19 03:00:22;;;;;;;10.05;5.78;;;17.70;99.90;;;;;;5069588;28;20489;-85
2022/07/19 03:02:48;;;;;;;9.35;5.10;;;17.70;99.90;;;;;;5070141;28;20072;-85
2022/07/19 03:05:13;;;;;;;10.73;5.50;;;17.70;99.90;;;;;;5069170;28;20126;-85
2022/07/19 03:07:39;;;;;;;9.10;5.28;;;17.70;99.90;;;;;;5070184;28;20081;-85
2022/07/19 03:10:05;;;;;;;9.15;4.97;;;17.70;99.90;;;;;;5069653;28;20090;-85
2022/07/19 03:12:30;;;;;;;9.88;5.07;;;17.70;99.90;;;;;;5070176;28;20131;-83
2022/07/19 03:14:56;;;;;;;9.70;5.07;;;17.70;99.90;;;;;;5069804;28;20120;-83
2022/07/19 03:17:22;;;;;;;9.73;4.93;;;17.70;99.90;;;;;;5070150;28;20044;-84
2022/07/19 03:19:47;;;;;;;9.93;5.35;;;17.70;99.90;;;;;;5069647;28;20036;-84
2022/07/19 03:22:13;;;;;;;8.60;5.10;;;17.70;99.90;;;;;;5069865;28;20068;-85
2022/07/19 03:24:39;;;;;;;9.85;5.57;;;17.70;99.90;;;;;;5069761;28;20032;-84
2022/07/19 03:27:04;;;;;;;10.48;4.93;;;17.70;99.90;;;;;;5053161;28;20135;-84
2022/07/19 03:29:30;;;;;;;10.80;5.65;;;17.70;99.90;;;;;;5069219;28;20521;-84
2022/07/19 03:31:57;;;;;;;12.60;5.97;;;17.70;99.90;;;;;;5069902;28;20041;-85
2022/07/19 03:34:23;;;;;;;10.30;5.20;;;17.70;99.90;;;;;;5053217;28;20109;-84
2022/07/19 03:36:48;;;;;;;9.18;5.20;;;17.70;99.90;;;;;;5069839;28;20550;-85
2022/07/19 03:39:14;;;;;;;10.40;5.47;;;17.70;99.90;;;;;;5069427;28;20044;-84
2022/07/19 03:41:39;;;;;;;10.73;5.32;;;17.70;99.90;;;;;;5069518;28;20047;-84
2022/07/19 03:44:05;;;;;;;11.73;6.13;;;17.70;99.90;;;;;;5069632;28;20086;-84
2022/07/19 03:46:31;;;;;;;11.57;5.72;;;17.70;99.90;;;;;;5070101;28;20038;-85
2022/07/19 03:48:57;;;;;;;9.90;5.40;;;17.70;99.90;;;;;;5069410;28;20390;-84
2022/07/19 03:51:23;;;;;;;10.25;5.22;;;17.70;99.90;;;;;;5052750;28;20074;-84
2022/07/19 03:53:49;;;;;;;8.57;5.22;;;17.60;99.90;;;;;;5069753;28;20040;-84
2022/07/19 03:56:17;;;;;;;10.55;5.38;;;17.60;99.90;;;;;;5069450;28;20084;-84
2022/07/19 03:58:43;;;;;;;11.27;5.38;;;17.60;99.90;;;;;;5069173;28;20063;-82
2022/07/19 04:01:09;;;;;;;9.48;5.22;;;17.60;99.90;;;;;;5069022;28;20445;-84
2022/07/19 04:03:38;;;;;;;9.10;5.13;;;17.50;99.90;;;;;;5069781;28;20036;-83
2022/07/19 04:06:06;;;;;;;11.27;5.78;;;17.50;99.90;;;;;;5052724;28;20124;-84
2022/07/19 04:08:31;;;;;;;9.63;6.05;;;17.50;99.90;;;;;;5067614;28;20041;-83
2022/07/19 04:10:58;;;;;;;10.35;5.88;;;17.50;99.90;;;;;;5069195;28;20041;-83
2022/07/19 04:13:23;;;;;;;11.15;6.30;;;17.50;99.90;;;;;;5053370;28;20438;-83
2022/07/19 04:15:49;;;;;;;11.15;6.18;;;17.60;99.90;;;;;;5070720;28;20105;-84
2022/07/19 04:18:14;;;;;;;10.63;6.35;;;17.60;99.90;;;;;;5073175;28;20101;-84
2022/07/19 04:20:40;;;;;;;11.85;7.00;;;17.60;99.90;;;;;;5072855;28;20070;-84
2022/07/19 04:23:05;;;;;;;12.38;7.13;;;17.60;99.90;;;;;;5072739;28;20402;-84
2022/07/19 04:25:31;;;;;;;13.52;6.97;;;17.70;99.90;;;;;;5072970;28;20036;-84
2022/07/19 04:27:56;;;;;;;9.43;6.00;;;17.70;99.90;;;;;;5072962;28;20113;-84
2022/07/19 04:30:22;;;;;;;9.82;6.53;;;17.80;99.90;;;;;;5072554;28;20569;-84
2022/07/19 04:32:48;;;;;;;10.93;6.07;;;17.80;99.90;;;;;;5072880;28;20460;-84
2022/07/19 04:35:15;;;;;;;10.55;6.25;;;17.80;99.90;;;;;;5089851;28;20071;-84
2022/07/19 04:37:41;;;;;;;12.85;6.55;;;17.80;99.90;;;;;;5072719;28;20468;-84
2022/07/19 04:40:08;;;;;;;11.38;6.90;;;17.80;99.90;;;;;;5072223;28;20128;-84
2022/07/19 04:42:33;;;;;;;10.00;6.78;;;17.80;99.90;;;;;;5072647;28;20033;-84
2022/07/19 04:44:59;;;;;;;13.02;7.40;;;17.80;99.90;;;;;;5072628;28;20082;-84
2022/07/19 04:47:25;;;;;;;11.75;7.53;;;17.90;99.90;;;;;;5072648;28;20048;-84
2022/07/19 04:49:50;;;;;;;13.30;7.90;;;17.90;99.90;;;;;;5072379;28;20044;-84
2022/07/19 04:52:16;;;;;;;12.57;7.53;;;17.90;99.90;;;;;;5072428;28;20048;-84
2022/07/19 04:54:42;;;;;;;12.65;7.57;;;18.00;99.90;;;;;;5072394;28;20043;-84
2022/07/19 04:57:07;;;;;;;12.35;7.43;;;18.00;99.90;;;;;;5072395;28;20123;-85
2022/07/19 04:59:33;;;;;;;11.07;7.47;;;18.10;99.90;;;;;;5072259;28;20072;-84
2022/07/19 05:01:58;;;;;;;13.40;8.07;;;18.20;99.90;;;;;;5072341;28;20039;-84
2022/07/19 05:04:24;;;;;;;11.13;7.60;;;18.20;99.90;;;;;;5072257;28;20098;-84
2022/07/19 05:06:56;;;;;;;13.23;7.95;;;18.20;99.90;;;;;;5071971;28;20040;-84
2022/07/19 05:09:25;;;;;;;12.65;8.00;;;18.30;99.90;;;;;;5088810;28;20032;-84
2022/07/19 05:11:51;;;;;;;12.63;8.20;;;18.30;99.90;;;;;;5071913;28;20510;-84
2022/07/19 05:14:18;;;;;;;14.93;8.55;;;18.40;99.90;;;;;;5071889;28;20497;-84
2022/07/19 05:16:44;;;;;;;15.25;9.48;;;18.40;99.90;;;;;;5072125;28;20088;-84
2022/07/19 05:19:10;;;;;;;17.08;9.27;;;18.50;99.90;;;;;;5055044;28;20036;-84
2022/07/19 05:21:35;;;;;;;15.02;8.90;;;18.50;99.90;;;;;;5072268;28;20498;-84
2022/07/19 05:24:01;;;;;;;15.07;9.80;;;18.50;99.90;;;;;;5073147;28;20102;-84
2022/07/19 05:26:27;;;;;;;13.85;9.05;;;18.60;99.90;;;;;;5071676;28;20115;-85
2022/07/19 05:28:52;;;;;;;13.63;9.75;;;18.60;99.90;;;;;;5054356;28;20052;-85
2022/07/19 05:31:18;;;;;;;16.33;10.43;;;18.70;99.90;;;;;;5071560;28;20083;-85
2022/07/19 05:33:44;;;;;;;15.63;9.85;;;18.80;99.90;;;;;;5071663;28;20143;-85
2022/07/19 05:36:10;;;;;;;13.68;9.88;;;18.80;99.90;;;;;;5073651;28;20065;-85
2022/07/19 05:38:39;;;;;;;14.82;9.63;;;18.80;99.90;;;;;;5125952;27;20067;-84
2022/07/19 05:41:07;;;;;;;14.10;9.80;;;18.90;99.90;;;;;;5108841;28;20409;-84
2022/07/19 05:43:34;;;;;;;15.63;9.57;;;18.90;99.90;;;;;;5108527;28;20047;-85
2022/07/19 05:46:00;;;;;;;13.95;9.13;;;19.00;99.90;;;;;;5074828;28;20517;-84
2022/07/19 05:48:26;;;;;;;13.80;9.40;;;19.10;99.90;;;;;;5091951;28;20059;-85
2022/07/19 05:50:51;;;;;;;13.48;9.38;;;19.10;99.90;;;;;;5108288;28;20040;-85
2022/07/19 05:53:18;;;;;;;13.85;9.07;;;19.20;99.90;;;;;;5108459;28;20040;-85
2022/07/19 05:55:44;;;;;;;13.35;8.38;;;19.30;99.90;;;;;;5125553;27;20052;-84
2022/07/19 05:58:10;;;;;;;13.85;9.23;;;19.40;99.90;;;;;;5091289;28;20404;-85
2022/07/19 06:00:35;;;;;;;14.35;8.75;;;19.50;99.90;;;;;;5108051;28;20571;-85
2022/07/19 06:03:01;;;;;;;14.25;8.40;;;19.50;99.90;;;;;;5108236;28;20109;-85
2022/07/19 06:05:27;;;;;;;14.43;8.55;;;19.60;99.90;;;;;;5091262;28;20127;-85
2022/07/19 06:07:52;;;;;;;14.73;8.98;;;19.70;99.90;;;;;;5091287;28;20123;-85
2022/07/19 06:10:18;;;;;;;12.05;8.85;;;19.80;99.90;;;;;;5073796;28;20042;-85
2022/07/19 06:12:43;;;;;;;12.93;9.20;;;19.80;99.90;;;;;;5091400;28;20140;-84
2022/07/19 06:15:09;;;;;;;12.18;8.85;;;19.90;99.90;;;;;;5074206;28;20076;-84
2022/07/19 06:17:35;;;;;;;12.43;8.52;;;20.00;99.90;;;;;;5108076;28;20035;-86
2022/07/19 06:20:01;;;;;;;12.65;8.13;;;20.10;99.90;;;;;;5107632;28;20101;-86
2022/07/19 06:22:31;;;;;;;12.50;8.50;;;20.20;99.90;;;;;;5104274;28;20070;-85
2022/07/19 06:24:57;;;;;;;12.95;8.35;;;20.30;99.90;;;;;;5107389;28;20047;-86
2022/07/19 06:27:22;;;;;;;12.80;8.43;;;20.40;99.90;;;;;;5107954;28;20036;-86
2022/07/19 06:29:48;;;;;;;14.00;8.15;;;20.40;99.90;;;;;;5073621;28;20497;-85
2022/07/19 06:32:13;;;;;;;11.55;8.27;;;20.50;99.90;;;;;;5108072;28;20044;-85
2022/07/19 06:34:39;;;;;;;14.63;8.52;;;20.60;99.90;;;;;;5107551;28;20036;-86
2022/07/19 06:37:05;;;;;;;12.02;8.23;;;20.80;99.90;;;;;;5101427;28;20044;-86
2022/07/19 06:39:30;;;;;;;13.45;8.32;;;20.80;99.90;;;;;;5061518;28;20051;-85
2022/07/19 06:41:56;;;;;;;11.63;8.02;;;20.90;99.90;;;;;;5099143;28;20046;-85
2022/07/19 06:44:22;;;;;;;14.18;8.07;;;21.00;99.90;;;;;;5107559;28;20513;-86
2022/07/19 06:46:47;;;;;;;13.32;8.15;;;21.10;99.90;;;;;;5074114;28;20047;-86
2022/07/19 06:49:13;;;;;;;11.65;7.88;;;21.20;99.90;;;;;;5091630;28;20497;-85
2022/07/19 06:51:38;;;;;;;14.77;8.30;;;21.30;99.90;;;;;;5090532;28;20505;-86
2022/07/19 06:54:04;;;;;;;12.43;8.00;;;21.40;99.90;;;;;;5073209;28;20123;-86
2022/07/19 06:56:30;;;;;;;13.35;7.57;;;21.50;99.90;;;;;;5073543;28;20033;-86
2022/07/19 06:58:55;;;;;;;13.10;7.22;;;21.60;99.90;;;;;;5073536;28;20043;-86
2022/07/19 07:01:21;;;;;;;12.82;7.68;;;21.70;99.90;;;;;;5091555;28;20036;-86
2022/07/19 07:03:46;;;;;;;13.18;7.88;;;21.80;99.90;;;;;;5073331;28;20036;-86
2022/07/19 07:06:12;;;;;;;13.68;7.65;;;21.90;99.90;;;;;;5090236;28;20081;-85
2022/07/19 07:08:38;;;;;;;14.25;7.45;;;21.90;99.90;;;;;;5091267;28;20043;-86
2022/07/19 07:11:03;;;;;;;13.23;7.45;;;22.00;99.90;;;;;;5106625;28;20039;-86
2022/07/19 07:13:29;;;;;;;11.73;6.85;;;22.20;99.90;;;;;;5107498;28;20040;-86
2022/07/19 07:15:55;;;;;;;10.88;6.50;;;22.20;99.90;;;;;;5107037;28;20778;-86
2022/07/19 07:18:20;;;;;;;11.85;6.32;;;22.30;99.90;;;;;;5073418;28;20048;-86
2022/07/19 07:20:46;;;;;;;9.30;6.07;;;22.50;99.90;;;;;;5073107;28;20034;-86
2022/07/19 07:23:11;;;;;;;12.13;6.20;;;22.50;99.90;;;;;;5090342;28;20519;-86
2022/07/19 07:25:37;;;;;;;12.30;6.05;;;22.60;99.90;;;;;;5090413;28;20036;-86
2022/07/19 07:28:03;;;;;;;20.38;6.43;;;22.70;99.90;;;;;;5090040;28;20509;-85
2022/07/19 07:30:28;;;;;;;11.77;6.47;;;22.80;99.90;;;;;;5106735;28;20040;-86
2022/07/19 07:32:54;;;;;;;12.32;6.28;;;22.90;99.90;;;;;;5107239;28;20451;-86
2022/07/19 07:35:19;;;;;;;11.48;5.72;;;23.10;99.90;;;;;;5106684;28;20079;-86
2022/07/19 07:37:45;;;;;;;10.93;5.05;;;23.20;99.90;;;;;;5089835;28;20082;-86
2022/07/19 07:40:11;;;;;;;10.13;5.07;;;23.30;99.90;;;;;;5090971;28;20040;-86
2022/07/19 07:42:37;;;;;;;12.48;5.60;;;23.40;99.90;;;;;;5107225;28;20486;-86
2022/07/19 07:45:03;;;;;;;10.35;5.28;;;23.50;99.90;;;;;;5089717;28;20119;-86
2022/07/19 07:47:28;;;;;;;9.63;4.70;;;23.60;99.90;;;;;;5107106;28;20493;-86
2022/07/19 07:49:54;;;;;;;8.98;4.28;;;23.70;99.90;;;;;;5106605;28;20051;-86
2022/07/19 07:52:20;;;;;;;11.43;5.35;;;23.80;99.90;;;;;;5110366;28;20041;-86
2022/07/19 07:54:47;;;;;;;10.15;4.63;;;23.90;99.90;;;;;;5077201;28;20032;-86
2022/07/19 07:57:12;;;;;;;11.13;5.07;;;24.00;99.90;;;;;;5076889;28;20120;-86
2022/07/19 07:59:38;;;;;;;9.85;4.72;;;24.10;99.90;;;;;;5110325;28;20093;-86
2022/07/19 08:02:04;;;;;;;9.35;4.90;;;24.30;99.90;;;;;;5076853;28;20101;-86
2022/07/19 08:04:29;;;;;;;10.00;4.75;;;24.40;99.90;;;;;;5094572;28;20048;-87
2022/07/19 08:06:55;;;;;;;8.93;4.43;;;24.50;99.90;;;;;;5076583;28;20039;-86
2022/07/19 08:09:21;;;;;;;11.52;5.00;;;24.60;99.90;;;;;;5110514;28;20084;-86
2022/07/19 08:11:47;;;;;;;9.60;4.57;;;24.70;99.90;;;;;;5110482;28;20131;-86
2022/07/19 08:14:12;;;;;;;9.48;3.90;;;24.80;99.90;;;;;;5110669;28;20484;-86
2022/07/19 08:16:38;;;;;;;9.15;4.40;;;24.90;99.90;;;;;;5110119;28;20097;-86
2022/07/19 08:19:03;;;;;;;9.57;4.45;;;25.00;99.90;;;;;;5109953;28;20040;-86
2022/07/19 08:21:29;;;;;;;11.13;4.15;;;25.10;99.90;;;;;;5110266;28;20036;-86
2022/07/19 08:23:55;;;;;;;10.48;4.03;;;25.20;99.90;;;;;;5109974;28;20505;-86
2022/07/19 08:26:21;;;;;;;15.57;4.28;;;25.30;99.90;;;;;;5110581;28;20032;-86
2022/07/19 08:28:47;;;;;;;10.50;3.70;;;25.40;99.90;;;;;;5110194;28;20046;-87
2022/07/19 08:31:14;;;;;;;10.35;3.83;;;25.50;99.90;;;;;;5109938;28;20066;-87
2022/07/19 08:33:41;;;;;;;14.40;3.85;;;25.60;99.90;;;;;;5110447;28;20519;-87
2022/07/19 08:36:09;;;;;;;11.23;3.60;;;25.70;99.90;;;;;;5110064;28;20036;-87
2022/07/19 08:38:35;;;;;;;11.10;4.18;;;25.90;99.90;;;;;;5076032;28;20039;-84
2022/07/19 08:41:01;;;;;;;10.23;3.40;;;26.00;99.90;;;;;;5126724;27;20036;-84
2022/07/19 08:43:27;;;;;;;12.90;3.50;;;26.10;99.90;;;;;;5126909;27;20032;-85
2022/07/19 08:45:53;;;;;;;10.13;3.50;;;26.20;99.90;;;;;;5076078;28;20040;-85
2022/07/19 08:48:20;;;;;;;9.55;3.50;;;26.30;99.80;;;;;;5110082;28;20508;-84
2022/07/19 08:50:47;;;;;;;7.22;3.05;;;26.40;98.60;;;;;;5109385;28;20086;-85
2022/07/19 08:53:14;;;;;;;12.05;3.25;;;26.50;98.20;;;;;;5075666;28;20123;-85
2022/07/19 08:55:40;;;;;;;37.03;5.38;;;26.70;98.90;;;;;;5109642;28;20044;-85
2022/07/19 08:58:06;;;;;;;12.20;3.50;;;26.70;98.40;;;;;;5093660;28;20047;-85
2022/07/19 09:00:34;;;;;;;7.10;3.15;;;26.90;98.40;;;;;;5075382;28;20505;-85
2022/07/19 09:03:07;;;;;;;11.32;3.22;;;27.00;95.40;;;;;;5108353;28;20104;-85
2022/07/19 09:05:34;;;;;;;9.75;3.30;;;27.10;92.40;;;;;;5092433;28;20107;-85
2022/07/19 09:08:13;;;;;;;9.77;3.40;;;27.20;95.00;;;;;;5075550;28;20047;-85
2022/07/19 09:10:42;;;;;;;13.00;3.30;;;27.30;93.60;;;;;;5108544;28;20039;-85
2022/07/19 09:13:13;;;;;;;11.50;3.67;;;27.40;94.60;;;;;;5092514;28;20040;-85
2022/07/19 09:15:42;;;;;;;7.78;2.70;;;27.60;90.90;;;;;;5109228;28;20115;-85
2022/07/19 09:18:14;;;;;;;8.52;2.78;;;27.70;87.10;;;;;;5109121;28;20083;-85
2022/07/19 09:20:41;;;;;;;11.35;2.90;;;27.80;86.80;;;;;;5093052;28;20419;-85
2022/07/19 09:23:07;;;;;;;9.65;3.00;;;27.80;85.40;;;;;;5093705;28;20084;-85
2022/07/19 09:25:34;;;;;;;9.63;2.40;;;28.00;88.90;;;;;;5093412;28;20040;-85
2022/07/19 09:27:59;;;;;;;8.35;2.70;;;28.10;79.90;;;;;;5092143;28;20047;-85
2022/07/19 09:30:43;;;;;;;8.05;2.72;;;28.20;72.90;;;;;;5108893;28;20410;-85
2022/07/19 09:33:13;;;;;;;9.20;2.53;;;28.30;77.70;;;;;;5108891;28;20040;-85
2022/07/19 09:35:43;;;;;;;9.02;2.90;;;28.40;75.00;;;;;;5093205;28;20482;-85
2022/07/19 09:38:26;;;;;;;6.53;2.55;;;28.50;75.70;;;;;;5108738;28;20051;-85
2022/07/19 09:41:08;;;;;;;10.20;3.05;;;28.70;71.00;;;;;;5091621;28;20047;-85
2022/07/19 09:43:53;;;;;;;8.80;2.53;;;28.80;70.10;;;;;;5092790;28;20054;-85
2022/07/19 09:46:28;;;;;;;10.98;2.65;;;28.90;65.40;;;;;;5108784;28;20493;-85
2022/07/19 09:49:01;;;;;;;9.00;2.53;;;29.10;65.50;;;;;;5074772;28;20043;-85
2022/07/19 09:51:26;;;;;;;6.57;2.33;;;29.10;67.20;;;;;;5091468;28;20048;-85
2022/07/19 09:53:53;;;;;;;10.30;2.95;;;29.20;66.20;;;;;;5092647;28;20070;-85
2022/07/19 09:56:18;;;;;;;8.65;2.50;;;29.30;64.00;;;;;;5074597;28;20126;-85
2022/07/19 09:58:45;;;;;;;9.18;2.65;;;29.40;64.20;;;;;;5108952;28;20174;-85
2022/07/19 10:01:12;;;;;;;8.07;2.60;;;29.50;65.10;;;;;;5091197;28;20036;-85
2022/07/19 10:03:39;;;;;;;7.90;2.60;;;29.60;64.00;;;;;;5092542;28;20558;-85
2022/07/19 10:06:04;;;;;;;11.35;2.95;;;29.70;65.10;;;;;;5108322;28;20062;-85
2022/07/19 10:08:30;;;;;;;7.20;2.75;;;29.80;61.60;;;;;;5108141;28;20409;-85
2022/07/19 10:10:56;;;;;;;7.82;2.90;;;29.90;60.90;;;;;;5091968;28;20044;-85
2022/07/19 10:13:21;;;;;;;6.97;2.70;;;30.00;62.80;;;;;;5090743;28;20036;-85
2022/07/19 10:15:52;;;;;;;8.77;2.17;;;30.10;61.10;;;;;;5092557;28;20082;-85
2022/07/19 10:18:23;;;;;;;8.60;2.90;;;30.20;60.20;;;;;;5091025;28;20460;-85
2022/07/19 10:20:50;;;;;;;7.57;2.55;;;30.30;61.30;;;;;;5092184;28;20136;-85
2022/07/19 10:23:22;;;;;;;9.48;2.88;;;30.40;58.60;;;;;;5090841;28;20079;-85
2022/07/19 10:25:47;;;;;;;8.10;2.63;;;30.50;56.00;;;;;;5091252;28;20036;-85
2022/07/19 10:28:37;;;;;;;10.52;2.63;;;30.60;56.10;;;;;;5091074;28;20097;-85
2022/07/19 10:31:23;;;;;;;7.13;2.47;;;30.70;55.80;;;;;;5091765;28;20044;-85
2022/07/19 10:33:59;;;;;;;10.13;2.42;;;30.80;55.60;;;;;;5090605;28;20043;-85
2022/07/19 10:36:44;;;;;;;7.90;2.70;;;30.90;56.30;;;;;;5090997;28;20036;-85
2022/07/19 10:39:29;;;;;;;8.00;2.60;;;31.00;53.20;;;;;;5107389;28;20044;-85
2022/07/19 10:42:16;;;;;;;7.35;2.50;;;31.10;54.60;;;;;;5107416;28;20047;-85
2022/07/19 10:44:59;;;;;;;9.73;2.40;;;31.20;51.70;;;;;;5091779;28;20055;-85
2022/07/19 10:47:35;;;;;;;7.85;2.25;;;31.30;51.70;;;;;;5107642;28;20051;-85
2022/07/19 10:50:02;;;;;;;9.20;2.63;;;31.40;52.10;;;;;;5107237;28;20122;-85
2022/07/19 10:52:28;;;;;;;10.95;2.50;;;31.50;51.30;;;;;;5091642;28;20042;-85
2022/07/19 10:55:15;;;;;;;20.83;3.85;;;31.70;51.50;;;;;;5107243;28;20122;-85
2022/07/19 10:57:42;;;;;;;7.80;2.20;;;31.70;51.70;;;;;;5090549;28;20050;-85
2022/07/19 11:00:30;;;;;;;8.27;2.35;;;31.80;49.10;;;;;;5103355;28;20449;-85
2022/07/19 11:03:21;;;;;;;8.05;2.22;;;31.90;52.50;;;;;;5079455;28;20102;-85
2022/07/19 11:05:58;;;;;;;6.93;1.95;;;32.00;49.50;;;;;;5089232;28;20133;-85
2022/07/19 11:08:34;;;;;;;9.45;2.17;;;32.10;48.40;;;;;;5073315;28;20040;-85
2022/07/19 11:11:08;;;;;;;8.93;2.10;;;32.20;47.50;;;;;;5089807;28;20040;-85
2022/07/19 11:13:35;;;;;;;6.68;2.03;;;32.40;47.60;;;;;;5091320;28;20039;-85
2022/07/19 11:16:02;;;;;;;12.13;2.20;;;32.40;47.70;;;;;;5091402;28;20036;-85
2022/07/19 11:18:29;;;;;;;10.88;2.75;;;32.60;48.10;;;;;;5091460;28;20044;-85
2022/07/19 11:20:58;;;;;;;7.38;2.42;;;32.70;48.60;;;;;;5106919;28;20048;-85
2022/07/19 11:23:24;;;;;;;8.07;2.00;;;32.80;47.90;;;;;;5089954;28;20086;-86
2022/07/19 11:25:51;;;;;;;13.90;3.08;;;32.90;44.40;;;;;;5106326;28;20074;-85
2022/07/19 11:28:24;;;;;;;6.75;1.90;;;32.90;46.00;;;;;;5088965;28;20047;-85
2022/07/19 11:30:50;;;;;;;7.32;2.00;;;33.10;44.60;;;;;;5091206;28;20032;-86
2022/07/19 11:33:19;;;;;;;7.70;1.60;;;33.10;43.80;;;;;;5106997;28;20072;-85
2022/07/19 11:35:59;;;;;;;7.50;3.10;;;33.20;44.30;;;;;;5091093;28;20040;-85
2022/07/19 11:38:41;;;;;;;4.85;1.65;;;33.40;47.70;;;;;;5106587;28;20127;-85
2022/07/19 11:41:24;;;;;;;7.30;1.90;;;33.50;44.50;;;;;;5091399;28;20039;-85
2022/07/19 11:44:00;;;;;;;6.70;1.95;;;33.60;42.60;;;;;;5106951;28;20054;-86
2022/07/19 11:46:30;;;;;;;5.90;1.60;;;33.70;42.50;;;;;;5106752;28;20044;-85
2022/07/19 11:48:57;;;;;;;9.38;2.30;;;33.70;41.70;;;;;;5107056;28;20128;-86
2022/07/19 11:51:23;;;;;;;6.40;1.95;;;33.80;43.00;;;;;;5089764;28;20042;-85
2022/07/19 11:53:51;;;;;;;6.63;2.00;;;33.90;43.30;;;;;;5091056;28;20078;-86
2022/07/19 11:56:26;;;;;;;5.72;1.80;;;34.00;40.80;;;;;;5072913;28;20118;-85
2022/07/19 11:58:54;;;;;;;7.00;1.88;;;34.10;40.40;;;;;;5106869;28;20072;-86
2022/07/19 12:01:24;;;;;;;5.80;1.80;;;34.10;40.20;;;;;;5106695;28;20054;-85
2022/07/19 12:04:01;;;;;;;7.15;1.77;;;34.10;39.80;;;;;;5089906;28;20335;-85
2022/07/19 12:06:39;;;;;;;7.60;1.73;;;34.30;39.70;;;;;;5089887;28;20071;-85
2022/07/19 12:09:19;;;;;;;8.93;2.15;;;34.40;41.90;;;;;;5089715;28;20070;-85
2022/07/19 12:11:53;;;;;;;7.22;2.10;;;34.50;42.10;;;;;;5093772;28;20040;-82
2022/07/19 12:14:27;;;;;;;8.05;1.98;;;34.60;40.30;;;;;;5101849;28;20044;-85
2022/07/19 12:17:19;;;;;;;5.63;1.80;;;34.70;40.90;;;;;;5091384;28;20086;-86
2022/07/19 12:19:48;;;;;;;5.97;1.60;;;34.80;39.70;;;;;;5101233;28;20040;-86
2022/07/19 12:22:32;;;;;;;8.55;1.80;;;34.90;40.80;;;;;;5099853;28;20035;-86
2022/07/19 12:24:58;;;;;;;4.32;1.50;;;35.00;39.30;;;;;;5085012;28;20089;-86
2022/07/19 12:27:27;;;;;;;6.95;1.85;;;35.10;39.90;;;;;;5111297;28;20104;-86
2022/07/19 12:29:54;;;;;;;7.50;2.03;;;35.10;38.60;;;;;;5110727;28;20040;-86
2022/07/19 12:32:28;;;;;;;7.70;1.90;;;35.10;37.40;;;;;;5099616;28;20040;-86
2022/07/19 12:34:57;;;;;;;8.23;2.00;;;35.20;38.90;;;;;;5100496;28;20043;-86
2022/07/19 12:37:25;;;;;;;6.47;1.70;;;35.30;39.20;;;;;;5092053;28;20044;-86
2022/07/19 12:40:06;;;;;;;6.55;1.90;;;35.40;38.50;;;;;;5094048;28;20096;-86
2022/07/19 12:42:59;;;;;;;6.60;1.90;;;35.50;40.00;;;;;;5093122;28;20062;-86
2022/07/19 12:45:27;;;;;;;4.22;1.80;;;35.60;39.30;;;;;;5075656;28;20040;-87